createdAt,value
2018-09-20T00:01:47.303Z,75.90
2018-09-20T00:04:14.815Z,75.90
2018-09-20T00:06:42.727Z,76.10
2018-09-20T00:09:10.241Z,76.30
2018-09-20T00:11:37.836Z,76.40
2018-09-20T00:14:05.481Z,77.50
2018-09-20T00:16:33.082Z,76.80
2018-09-20T00:19:00.669Z,77.10
2018-09-20T00:21:28.209Z,77.20
2018-09-20T00:23:55.883Z,77.30
2018-09-20T00:26:23.391Z,77.50
2018-09-20T00:28:51.008Z,77.70
2018-09-20T00:31:18.618Z,77.80
2018-09-20T00:33:46.316Z,78.10
2018-09-20T00:36:13.945Z,78.20
2018-09-20T00:38:41.694Z,78.40
2018-09-20T00:41:09.331Z,78.60
2018-09-20T00:43:36.892Z,78.70
2018-09-20T00:46:04.770Z,79.00
2018-09-20T00:48:32.267Z,79.30
2018-09-20T00:51:01.992Z,79.70
2018-09-20T00:53:29.591Z,79.80
2018-09-20T00:55:57.164Z,80.00
2018-09-20T00:58:24.732Z,81.10
2018-09-20T01:00:52.434Z,80.30
2018-09-20T01:03:20.027Z,80.20
2018-09-20T01:05:47.604Z,80.30
2018-09-20T01:08:15.145Z,80.30
2018-09-20T01:10:42.724Z,80.20
2018-09-20T01:13:10.253Z,80.20
2018-09-20T01:15:37.865Z,80.40
2018-09-20T01:18:05.711Z,80.30
2018-09-20T01:20:33.184Z,80.40
2018-09-20T01:23:00.830Z,80.60
2018-09-20T01:25:28.368Z,80.50
2018-09-20T01:27:55.948Z,80.90
2018-09-20T01:30:23.599Z,81.10
2018-09-20T01:32:51.136Z,81.30
2018-09-20T01:35:18.832Z,81.30
2018-09-20T01:37:46.406Z,81.70
2018-09-20T01:40:14.059Z,82.00
2018-09-20T01:42:41.613Z,82.10
2018-09-20T01:45:09.142Z,82.20
2018-09-20T01:47:36.723Z,82.60
2018-09-20T01:50:04.638Z,82.90
2018-09-20T01:52:32.231Z,83.50
2018-09-20T01:54:59.822Z,83.80
2018-09-20T01:57:27.496Z,84.10
2018-09-20T01:59:55.007Z,84.40
2018-09-20T02:02:22.595Z,84.70
2018-09-20T02:04:50.173Z,84.60
2018-09-20T02:07:17.733Z,84.90
2018-09-20T02:09:45.260Z,85.10
2018-09-20T02:12:12.931Z,84.90
2018-09-20T02:14:40.478Z,85.70
2018-09-20T02:17:08.100Z,84.70
2018-09-20T02:19:35.717Z,85.30
2018-09-20T02:22:03.335Z,85.70
2018-09-20T02:24:30.927Z,85.80
2018-09-20T02:26:58.481Z,86.00
2018-09-20T02:29:26.042Z,86.00
2018-09-20T02:31:53.742Z,86.30
2018-09-20T02:34:21.310Z,86.40
2018-09-20T02:36:48.948Z,86.20
2018-09-20T02:39:16.515Z,86.60
2018-09-20T02:41:44.089Z,86.80
2018-09-20T02:44:11.799Z,87.10
2018-09-20T02:46:39.417Z,87.00
2018-09-20T02:49:07.002Z,87.20
2018-09-20T02:51:34.591Z,87.40
2018-09-20T02:54:02.340Z,87.90
2018-09-20T02:56:29.916Z,88.00
2018-09-20T02:58:57.583Z,88.10
2018-09-20T03:01:25.151Z,88.30
2018-09-20T03:03:52.976Z,88.30
2018-09-20T03:06:20.658Z,88.80
2018-09-20T03:08:48.320Z,88.80
2018-09-20T03:11:15.909Z,89.60
2018-09-20T03:13:43.442Z,89.60
2018-09-20T03:16:11.032Z,90.00
2018-09-20T03:18:38.533Z,90.10
2018-09-20T03:21:06.159Z,90.00
2018-09-20T03:23:33.651Z,90.20
2018-09-20T03:26:01.348Z,90.10
2018-09-20T03:28:28.908Z,90.40
2018-09-20T03:30:56.582Z,90.30
2018-09-20T03:33:51.350Z,90.40
2018-09-20T03:36:18.582Z,90.50
2018-09-20T03:38:45.857Z,90.30
2018-09-20T03:41:13.070Z,90.60
2018-09-20T03:43:40.621Z,90.50
2018-09-20T03:46:07.868Z,90.60
2018-09-20T03:48:35.043Z,90.60
2018-09-20T03:51:02.289Z,90.70
2018-09-20T03:53:29.538Z,90.80
2018-09-20T03:55:56.866Z,91.00
2018-09-20T03:58:24.066Z,91.40
2018-09-20T04:00:51.312Z,91.60
2018-09-20T04:03:18.565Z,91.60
2018-09-20T04:05:45.801Z,91.80
2018-09-20T04:08:13.501Z,91.40
2018-09-20T04:10:40.733Z,91.50
2018-09-20T04:13:07.973Z,91.60
2018-09-20T04:15:35.813Z,91.90
2018-09-20T04:18:02.990Z,91.90
2018-09-20T04:20:30.270Z,91.60
2018-09-20T04:22:57.535Z,91.60
2018-09-20T04:25:24.773Z,91.60
2018-09-20T04:27:52.011Z,91.70
2018-09-20T04:30:19.288Z,91.60
2018-09-20T04:32:46.504Z,91.80
2018-09-20T04:35:14.073Z,91.50
2018-09-20T04:37:41.769Z,91.60
2018-09-20T04:40:08.993Z,91.70
2018-09-20T04:42:36.269Z,91.60
2018-09-20T04:45:03.585Z,91.70
2018-09-20T04:47:30.841Z,91.90
2018-09-20T04:49:58.095Z,91.90
2018-09-20T04:52:25.353Z,91.70
2018-09-20T04:54:52.486Z,91.80
2018-09-20T04:57:19.680Z,91.80
2018-09-20T04:59:46.910Z,91.80
2018-09-20T05:02:14.161Z,91.80
2018-09-20T05:04:41.386Z,91.90
2018-09-20T05:07:08.585Z,92.20
2018-09-20T05:09:35.867Z,92.10
2018-09-20T05:12:03.097Z,91.90
2018-09-20T05:14:30.300Z,92.10
2018-09-20T05:16:57.478Z,92.30
2018-09-20T05:19:24.713Z,92.40
2018-09-20T05:21:51.977Z,92.20
2018-09-20T05:24:19.246Z,92.20
2018-09-20T05:26:46.455Z,92.60
2018-09-20T05:29:13.646Z,92.50
2018-09-20T05:31:40.886Z,92.40
2018-09-20T05:34:08.171Z,92.30
2018-09-20T05:36:35.365Z,92.20
2018-09-20T05:39:03.010Z,92.00
2018-09-20T05:41:30.209Z,92.00
2018-09-20T05:43:57.476Z,92.00
2018-09-20T05:46:24.686Z,92.00
2018-09-20T05:48:51.829Z,92.20
2018-09-20T05:51:19.005Z,91.90
2018-09-20T05:53:46.290Z,91.70
2018-09-20T05:56:13.740Z,91.60
2018-09-20T05:58:40.893Z,91.30
2018-09-20T06:01:08.066Z,91.10
2018-09-20T06:03:35.257Z,91.00
2018-09-20T06:06:02.457Z,90.90
2018-09-20T06:08:29.629Z,90.70
2018-09-20T06:10:56.792Z,90.50
2018-09-20T06:13:23.983Z,90.40
2018-09-20T06:15:51.165Z,90.20
2018-09-20T06:18:18.306Z,90.00
2018-09-20T06:20:45.562Z,90.00
2018-09-20T06:23:12.706Z,89.70
2018-09-20T06:25:39.857Z,89.70
2018-09-20T06:28:07.011Z,89.60
2018-09-20T06:30:34.158Z,89.20
2018-09-20T06:33:01.357Z,88.90
2018-09-20T06:35:28.993Z,88.30
2018-09-20T06:37:56.151Z,88.10
2018-09-20T06:40:23.289Z,88.10
2018-09-20T06:42:51.374Z,88.10
2018-09-20T06:45:18.529Z,87.90
2018-09-20T06:47:45.738Z,87.40
2018-09-20T06:50:12.920Z,87.20
2018-09-20T06:52:40.250Z,86.70
2018-09-20T06:55:07.626Z,86.00
2018-09-20T06:57:35.778Z,85.60
2018-09-20T07:00:04.357Z,84.90
2018-09-20T07:02:32.169Z,84.60
2018-09-20T07:04:59.327Z,84.60
2018-09-20T07:07:26.454Z,83.10
2018-09-20T07:09:53.673Z,81.70
2018-09-20T07:12:20.849Z,81.40
2018-09-20T07:14:48.096Z,81.30
2018-09-20T07:17:15.273Z,81.00
2018-09-20T07:19:42.721Z,80.90
2018-09-20T07:22:09.930Z,80.20
2018-09-20T07:24:37.110Z,80.20
2018-09-20T07:27:04.310Z,80.10
2018-09-20T07:29:31.554Z,80.20
2018-09-20T07:31:58.822Z,79.30
2018-09-20T07:34:26.097Z,79.00
2018-09-20T07:36:53.963Z,78.50
2018-09-20T07:39:21.189Z,78.10
2018-09-20T07:41:48.453Z,77.60
2018-09-20T07:44:15.670Z,76.60
2018-09-20T07:46:42.850Z,76.30
2018-09-20T07:49:10.086Z,75.80
2018-09-20T07:51:37.409Z,74.70
2018-09-20T07:54:04.613Z,74.60
2018-09-20T07:56:32.019Z,74.10
2018-09-20T07:59:00.169Z,73.30
2018-09-20T08:01:27.412Z,73.20
2018-09-20T08:03:54.614Z,72.00
2018-09-20T08:06:21.893Z,71.80
2018-09-20T08:08:49.279Z,70.50
2018-09-20T08:11:16.434Z,70.20
2018-09-20T08:13:43.630Z,70.00
2018-09-20T08:16:10.789Z,70.40
2018-09-20T08:18:37.940Z,69.60
2018-09-20T08:21:05.487Z,69.50
2018-09-20T08:23:32.638Z,70.00
2018-09-20T08:26:00.030Z,69.50
2018-09-20T08:28:27.273Z,69.20
2018-09-20T08:30:54.425Z,68.60
2018-09-20T08:33:21.678Z,68.30
2018-09-20T08:35:48.846Z,68.20
2018-09-20T08:38:16.009Z,67.80
2018-09-20T08:40:43.185Z,67.80
2018-09-20T08:43:10.354Z,67.80
2018-09-20T08:45:37.522Z,66.40
2018-09-20T08:48:04.709Z,66.00
2018-09-20T08:50:31.852Z,66.40
2018-09-20T08:52:59.017Z,65.50
2018-09-20T08:55:26.194Z,65.90
2018-09-20T08:57:56.165Z,65.40
2018-09-20T09:00:23.743Z,65.20
2018-09-20T09:02:50.893Z,65.10
2018-09-20T09:05:18.103Z,64.70
2018-09-20T09:07:45.491Z,63.30
2018-09-20T09:10:12.722Z,63.20
2018-09-20T09:12:39.905Z,62.40
2018-09-20T09:15:07.064Z,62.50
2018-09-20T09:17:34.253Z,61.80
2018-09-20T09:20:01.414Z,62.10
2018-09-20T09:22:28.665Z,61.80
2018-09-20T09:24:56.141Z,61.10
2018-09-20T09:27:23.297Z,61.00
2018-09-20T09:29:50.657Z,61.00
2018-09-20T09:32:17.893Z,60.40
2018-09-20T09:34:45.038Z,60.20
2018-09-20T09:37:12.244Z,60.10
2018-09-20T09:39:39.419Z,60.20
2018-09-20T09:42:06.652Z,60.10
2018-09-20T09:44:33.833Z,60.10
2018-09-20T09:47:01.566Z,60.00
2018-09-20T09:49:28.738Z,59.40
2018-09-20T09:51:55.911Z,59.90
2018-09-20T09:54:23.172Z,58.10
2018-09-20T09:56:50.310Z,58.70
2018-09-20T09:59:17.475Z,58.40
2018-09-20T10:01:45.354Z,57.90
2018-09-20T10:04:12.617Z,58.20
2018-09-20T10:06:40.485Z,58.50
2018-09-20T10:09:08.697Z,58.20
2018-09-20T10:11:35.945Z,57.50
2018-09-20T10:14:03.122Z,57.50
2018-09-20T10:16:30.298Z,58.10
2018-09-20T10:18:57.495Z,58.10
2018-09-20T10:21:24.673Z,58.10
2018-09-20T10:23:51.965Z,57.60
2018-09-20T10:26:20.017Z,57.70
2018-09-20T10:28:47.250Z,57.70
2018-09-20T10:31:14.436Z,57.10
2018-09-20T10:33:41.570Z,57.30
2018-09-20T10:36:08.723Z,57.20
2018-09-20T10:38:35.878Z,56.80
2018-09-20T10:41:03.094Z,56.70
2018-09-20T10:43:30.254Z,56.70
2018-09-20T10:45:57.434Z,56.40
2018-09-20T10:48:24.601Z,56.60
2018-09-20T10:50:51.762Z,57.10
2018-09-20T10:53:19.063Z,56.90
2018-09-20T10:55:46.222Z,57.70
2018-09-20T10:58:13.398Z,57.20
2018-09-20T11:00:40.550Z,57.10
2018-09-20T11:03:07.730Z,57.00
2018-09-20T11:05:34.865Z,54.60
2018-09-20T11:08:02.010Z,55.80
2018-09-20T11:10:29.201Z,55.10
2018-09-20T11:12:56.349Z,55.10
2018-09-20T11:15:23.513Z,54.80
2018-09-20T11:17:50.678Z,53.70
2018-09-20T11:20:17.861Z,52.50
2018-09-20T11:22:45.082Z,52.90
2018-09-20T11:25:12.269Z,52.80
2018-09-20T11:27:39.437Z,52.50
2018-09-20T11:30:06.640Z,52.50
2018-09-20T11:32:33.798Z,52.50
2018-09-20T11:35:00.970Z,52.40
2018-09-20T11:37:28.143Z,53.10
2018-09-20T11:39:55.832Z,53.00
2018-09-20T11:42:23.018Z,52.50
2018-09-20T11:44:50.181Z,52.70
2018-09-20T11:47:17.321Z,52.60
2018-09-20T11:49:44.493Z,52.70
2018-09-20T11:52:12.258Z,52.70
2018-09-20T11:54:39.435Z,52.70
2018-09-20T11:57:06.565Z,52.70
2018-09-20T11:59:33.735Z,53.60
2018-09-20T12:02:00.907Z,53.40
2018-09-20T12:04:28.070Z,53.20
2018-09-20T12:06:55.938Z,53.20
2018-09-20T12:09:23.078Z,53.50
2018-09-20T12:11:50.281Z,53.30
2018-09-20T12:14:17.454Z,52.30
2018-09-20T12:16:44.630Z,52.00
2018-09-20T12:19:11.772Z,50.90
2018-09-20T12:21:38.926Z,50.20
2018-09-20T12:24:06.100Z,50.30
2018-09-20T12:26:33.250Z,49.70
2018-09-20T12:29:00.397Z,47.50
2018-09-20T12:31:27.594Z,46.10
2018-09-20T12:33:54.703Z,45.00
2018-09-20T12:36:22.145Z,45.20
2018-09-20T12:38:49.412Z,45.40
2018-09-20T12:41:16.587Z,45.70
2018-09-20T12:43:43.922Z,46.20
2018-09-20T12:46:11.171Z,46.80
2018-09-20T12:48:38.325Z,46.10
2018-09-20T12:51:05.974Z,46.70
2018-09-20T12:53:33.242Z,47.80
2018-09-20T12:56:00.490Z,48.40
2018-09-20T12:58:33.586Z,48.70
2018-09-20T13:01:00.857Z,48.70
2018-09-20T13:03:28.039Z,47.90
2018-09-20T13:05:55.242Z,47.50
2018-09-20T13:08:22.450Z,47.60
2018-09-20T13:10:49.615Z,48.00
2018-09-20T13:13:16.895Z,48.30
2018-09-20T13:15:44.070Z,47.40
2018-09-20T13:18:11.278Z,47.50
2018-09-20T13:20:38.492Z,45.60
2018-09-20T13:23:05.694Z,44.70
2018-09-20T13:25:32.995Z,44.20
2018-09-20T13:28:00.148Z,44.30
2018-09-20T13:30:27.337Z,43.80
2018-09-20T13:32:54.576Z,43.20
2018-09-20T13:35:21.788Z,42.80
2018-09-20T13:37:49.004Z,43.20
2018-09-20T13:40:16.271Z,42.80
2018-09-20T13:42:43.483Z,42.90
2018-09-20T13:45:10.685Z,42.90
2018-09-20T13:47:37.902Z,43.50
2018-09-20T13:50:05.142Z,43.50
2018-09-20T13:52:32.344Z,43.00
2018-09-20T13:54:59.538Z,42.10
2018-09-20T13:57:26.738Z,41.30
2018-09-20T13:59:53.935Z,40.60
2018-09-20T14:02:21.194Z,39.50
2018-09-20T14:04:48.358Z,39.30
2018-09-20T14:07:15.581Z,38.30
2018-09-20T14:09:42.874Z,38.20
2018-09-20T14:12:10.057Z,37.30
2018-09-20T14:14:37.249Z,37.20
2018-09-20T14:17:04.426Z,37.00
2018-09-20T14:19:31.598Z,36.50
2018-09-20T14:21:58.810Z,36.10
2018-09-20T14:24:26.070Z,35.50
2018-09-20T14:26:53.279Z,36.20
2018-09-20T14:29:20.474Z,36.30
2018-09-20T14:31:47.649Z,35.70
2018-09-20T14:34:14.859Z,37.00
2018-09-20T14:36:42.158Z,37.20
2018-09-20T14:39:11.015Z,37.80
2018-09-20T14:41:38.506Z,39.90
2018-09-20T14:44:05.809Z,39.50
2018-09-20T14:46:33.022Z,41.10
2018-09-20T14:49:00.234Z,41.90
2018-09-20T14:51:28.217Z,42.80
2018-09-20T14:53:55.415Z,43.50
2018-09-20T14:56:22.629Z,44.10
2018-09-20T14:58:50.090Z,44.30
2018-09-20T15:01:17.321Z,43.90
2018-09-20T15:03:44.593Z,43.30
2018-09-20T15:06:11.809Z,43.10
2018-09-20T15:08:39.004Z,43.20
2018-09-20T15:11:06.287Z,43.00
2018-09-20T15:13:33.522Z,43.00
2018-09-20T15:16:00.723Z,43.60
2018-09-20T15:18:27.907Z,42.90
2018-09-20T15:20:55.078Z,43.20
2018-09-20T15:23:22.329Z,43.30
2018-09-20T15:25:49.538Z,43.30
2018-09-20T15:28:16.786Z,42.80
2018-09-20T15:30:44.029Z,42.10
2018-09-20T15:33:11.326Z,40.20
2018-09-20T15:35:39.645Z,38.30
2018-09-20T15:38:06.850Z,37.10
2018-09-20T15:40:34.076Z,36.50
2018-09-20T15:43:01.577Z,36.10
2018-09-20T15:45:28.773Z,36.20
2018-09-20T15:48:00.973Z,36.10
2018-09-20T15:50:29.215Z,35.90
2018-09-20T15:52:56.497Z,35.60
2018-09-20T15:55:23.741Z,35.60
2018-09-20T15:57:52.025Z,35.70
2018-09-20T16:00:19.250Z,34.80
2018-09-20T16:02:46.448Z,34.70
2018-09-20T16:05:13.689Z,34.10
2018-09-20T16:07:40.939Z,33.70
2018-09-20T16:10:08.201Z,34.20
2018-09-20T16:12:35.421Z,34.50
2018-09-20T16:15:02.666Z,34.30
2018-09-20T16:17:29.978Z,34.50
2018-09-20T16:19:57.306Z,35.90
2018-09-20T16:22:24.566Z,36.90
2018-09-20T16:24:51.838Z,37.20
2018-09-20T16:27:19.070Z,37.20
2018-09-20T16:30:15.042Z,37.80
2018-09-20T16:32:58.348Z,38.00
2018-09-20T16:36:06.667Z,38.70
2018-09-20T16:38:47.759Z,38.00
2018-09-20T16:41:22.651Z,37.90
2018-09-20T16:43:49.902Z,38.30
2018-09-20T16:46:17.125Z,38.40
2018-09-20T16:48:44.293Z,38.60
2018-09-20T16:51:11.475Z,38.50
2018-09-20T16:53:38.722Z,39.00
2018-09-20T16:56:06.319Z,39.70
2018-09-20T16:58:34.351Z,40.80
2018-09-20T17:01:01.594Z,41.30
2018-09-20T17:03:28.770Z,42.90
2018-09-20T17:05:56.023Z,43.20
2018-09-20T17:08:23.194Z,43.80
2018-09-20T17:10:50.413Z,44.60
2018-09-20T17:13:18.225Z,45.90
2018-09-20T17:15:45.395Z,46.50
2018-09-20T17:18:12.653Z,47.50
2018-09-20T17:20:39.845Z,47.90
2018-09-20T17:23:07.038Z,48.80
2018-09-20T17:25:34.248Z,49.50
2018-09-20T17:28:02.114Z,49.80
2018-09-20T17:30:29.293Z,50.30
2018-09-20T17:32:56.503Z,51.00
2018-09-20T17:35:24.213Z,51.90
2018-09-20T17:37:53.383Z,52.40
2018-09-20T17:40:22.539Z,52.60
2018-09-20T17:42:52.787Z,53.00
2018-09-20T17:45:20.299Z,53.40
2018-09-20T17:47:47.765Z,53.90
2018-09-20T17:50:15.023Z,54.30
2018-09-20T17:52:43.173Z,54.70
2018-09-20T17:55:11.204Z,55.40
2018-09-20T17:57:38.912Z,56.10
2018-09-20T18:00:06.361Z,56.90
2018-09-20T18:02:33.675Z,57.20
2018-09-20T18:05:00.947Z,58.10
2018-09-20T18:07:28.730Z,58.40
2018-09-20T18:09:56.058Z,58.90
2018-09-20T18:12:23.249Z,59.50
2018-09-20T18:14:50.433Z,60.00
2018-09-20T18:17:17.607Z,60.60
2018-09-20T18:19:44.814Z,61.40
2018-09-20T18:22:12.048Z,61.10
2018-09-20T18:24:39.269Z,61.60
2018-09-20T18:27:06.506Z,62.10
2018-09-20T18:29:33.715Z,63.10
2018-09-20T18:32:00.927Z,63.50
2018-09-20T18:34:28.106Z,63.50
2018-09-20T18:36:55.309Z,64.30
2018-09-20T18:39:22.485Z,65.00
2018-09-20T18:41:49.678Z,66.10
2018-09-20T18:44:16.947Z,65.60
2018-09-20T18:46:44.133Z,65.30
2018-09-20T18:49:11.326Z,65.50
2018-09-20T18:51:38.543Z,65.80
2018-09-20T18:54:05.802Z,66.30
2018-09-20T18:56:33.085Z,66.80
2018-09-20T18:59:00.566Z,67.20
2018-09-20T19:01:27.750Z,67.60
2018-09-20T19:03:54.970Z,68.00
2018-09-20T19:06:22.943Z,68.30
2018-09-20T19:08:50.151Z,68.70
2018-09-20T19:11:17.310Z,68.80
2018-09-20T19:13:44.509Z,69.00
2018-09-20T19:16:11.712Z,69.20
2018-09-20T19:18:39.253Z,69.80
2018-09-20T19:21:06.463Z,69.70
2018-09-20T19:23:33.685Z,70.00
2018-09-20T19:26:00.884Z,69.90
2018-09-20T19:28:28.084Z,70.10
2018-09-20T19:30:55.249Z,70.70
2018-09-20T19:33:22.469Z,71.00
2018-09-20T19:35:49.650Z,71.20
2018-09-20T19:38:16.845Z,71.20
2018-09-20T19:40:44.051Z,71.30
2018-09-20T19:43:11.924Z,71.30
2018-09-20T19:45:39.109Z,71.40
2018-09-20T19:48:06.318Z,71.50
2018-09-20T19:50:33.623Z,72.10
2018-09-20T19:53:00.797Z,72.40
2018-09-20T19:55:27.990Z,72.20
2018-09-20T19:57:55.184Z,72.90
2018-09-20T20:00:22.401Z,72.90
2018-09-20T20:02:49.630Z,72.50
2018-09-20T20:05:16.853Z,73.30
2018-09-20T20:07:44.057Z,73.40
2018-09-20T20:10:11.281Z,73.80
2018-09-20T20:12:38.453Z,73.90
2018-09-20T20:15:05.629Z,73.60
2018-09-20T20:17:32.810Z,74.70
2018-09-20T20:20:00.026Z,74.20
2018-09-20T20:22:27.230Z,74.50
2018-09-20T20:24:54.409Z,74.60
2018-09-20T20:27:21.613Z,74.90
2018-09-20T20:29:48.781Z,74.80
2018-09-20T20:32:15.973Z,74.70
2018-09-20T20:34:43.156Z,75.00
2018-09-20T20:37:10.323Z,75.30
2018-09-20T20:39:37.547Z,75.70
2018-09-20T20:42:04.765Z,75.80
2018-09-20T20:44:31.974Z,75.50
2018-09-20T20:46:59.245Z,75.30
2018-09-20T20:49:26.414Z,75.50
2018-09-20T20:51:53.608Z,75.60
2018-09-20T20:54:20.813Z,75.90
2018-09-20T20:56:48.062Z,76.00
2018-09-20T20:59:15.263Z,76.60
2018-09-20T21:01:43.488Z,76.20
2018-09-20T21:04:10.665Z,76.30
2018-09-20T21:06:37.873Z,76.50
2018-09-20T21:09:06.987Z,76.10
2018-09-20T21:11:34.165Z,76.50
2018-09-20T21:14:01.361Z,76.30
2018-09-20T21:16:28.539Z,76.60
2018-09-20T21:18:55.720Z,76.80
2018-09-20T21:21:22.914Z,77.10
2018-09-20T21:23:50.120Z,76.90
2018-09-20T21:26:17.361Z,77.30
2018-09-20T21:28:44.542Z,77.80
2018-09-20T21:31:11.746Z,78.10
2018-09-20T21:33:38.942Z,78.40
2018-09-20T21:36:06.172Z,78.10
2018-09-20T21:38:33.344Z,78.30
2018-09-20T21:41:00.530Z,78.60
2018-09-20T21:43:27.779Z,78.50
2018-09-20T21:45:55.013Z,78.30
2018-09-20T21:48:22.254Z,78.10
2018-09-20T21:50:49.449Z,78.70
2018-09-20T21:53:16.671Z,78.80
2018-09-20T21:55:43.862Z,78.30
2018-09-20T21:58:11.046Z,78.30
2018-09-20T22:00:38.262Z,78.50
2018-09-20T22:03:05.478Z,78.40
2018-09-20T22:05:33.712Z,78.10
2018-09-20T22:08:00.917Z,78.30
2018-09-20T22:10:28.205Z,78.40
2018-09-20T22:12:55.994Z,78.70
2018-09-20T22:15:26.194Z,78.30
2018-09-20T22:17:54.061Z,78.10
2018-09-20T22:20:31.195Z,78.10
2018-09-20T22:22:58.840Z,78.00
2018-09-20T22:25:26.349Z,78.20
2018-09-20T22:27:53.721Z,77.90
2018-09-20T22:30:20.986Z,77.60
2018-09-20T22:32:48.261Z,77.60
2018-09-20T22:35:17.517Z,77.40
2018-09-20T22:37:44.993Z,77.50
2018-09-20T22:40:12.238Z,77.70
2018-09-20T22:42:39.465Z,77.70
2018-09-20T22:45:06.831Z,77.70
2018-09-20T22:47:34.484Z,77.60
2018-09-20T22:50:02.895Z,77.90
2018-09-20T22:52:30.200Z,77.60
2018-09-20T22:54:57.505Z,77.60
2018-09-20T22:57:24.722Z,77.80
2018-09-20T22:59:52.031Z,77.90
2018-09-20T23:02:19.408Z,77.90
2018-09-20T23:04:46.804Z,77.80
2018-09-20T23:07:14.113Z,77.70
2018-09-20T23:09:41.465Z,77.80
2018-09-20T23:12:08.793Z,77.70
2018-09-20T23:14:36.079Z,78.30
2018-09-20T23:17:04.231Z,78.00
2018-09-20T23:19:31.468Z,77.90
2018-09-20T23:21:58.977Z,78.00
2018-09-20T23:24:27.326Z,78.30
2018-09-20T23:26:54.716Z,78.30
2018-09-20T23:29:22.003Z,78.40
2018-09-20T23:31:49.257Z,78.70
2018-09-20T23:34:16.515Z,78.80
2018-09-20T23:36:44.057Z,78.80
2018-09-20T23:39:12.374Z,79.10
2018-09-20T23:41:40.135Z,79.30
2018-09-20T23:44:08.399Z,79.50
2018-09-20T23:46:35.769Z,79.80
2018-09-20T23:49:03.139Z,79.90
2018-09-20T23:51:30.772Z,80.00
2018-09-20T23:53:58.331Z,80.20
2018-09-20T23:56:26.704Z,80.40
2018-09-20T23:58:53.906Z,80.60
